Terminal Aerodrome Forecast
Issued by NWS

Home | Current Version | Previous Version | Graphics & Text | Print | Product List | Glossary On
Versions: 1 2 3 4 5 6 7 8 9 10 11 12 13
000
FTUS43 KTOP 262329
TAFMHK
TAF
KMHK 262329Z 2700/2724 02008KT P6SM SKC
     FM271000 30002KT 5SM BR SKC
     FM271400 03006KT P6SM SKC=

USA.gov is the U.S. government's official web portal to all federal, state and local government web resources and services.